Terminal Aerodrome Forecast
Issued by NWS Omaha/Valley, NE

Home | Current Version | Previous Version | Graphics & Text | Print | Product List | Glossary On
Versions: 1 2 3 4 5 6 7 8 9 10 11 12 13 14 15 16 17 18 19 20 21 22 23 24 25 26 27 28 29 30 31 32 33 34 35 36 37 38 39 40 41 42 43
000
FTUS43 KOAX 180538
TAFOFK
TAF
KOFK 180538Z 1806/1906 15010KT P6SM SCT250 WS020/19045KT
     FM181000 18017G25KT P6SM SCT250 WS020/20065KT
     FM181700 20024G35KT P6SM SCT250 WS020/22050KT
     FM182000 20015G25KT P6SM SCT250
     FM182300 32010KT P6SM BKN250
     FM190500 01014G24KT P6SM BKN030=

USA.gov is the U.S. government's official web portal to all federal, state and local government web resources and services.